createdAt,value
2019-03-22T00:01:13.519Z,99284.26
2019-03-22T00:03:46.671Z,99281.25
2019-03-22T00:06:19.886Z,99277.34
2019-03-22T00:08:53.226Z,99270.21
2019-03-22T00:11:26.745Z,99262.73
2019-03-22T00:14:00.058Z,99258.77
2019-03-22T00:16:33.331Z,99259.95
2019-03-22T00:19:07.103Z,99259.78
2019-03-22T00:21:40.002Z,99258.66
2019-03-22T00:24:13.367Z,99257.69
2019-03-22T00:26:46.242Z,99258.84
2019-03-22T00:29:19.411Z,99254.48
2019-03-22T00:31:52.278Z,99249.71
2019-03-22T00:34:25.438Z,99254.51
2019-03-22T00:36:58.636Z,99251.70
2019-03-22T00:39:31.960Z,99250.38
2019-03-22T00:42:04.838Z,99253.42
2019-03-22T00:44:37.984Z,99249.53
2019-03-22T00:47:12.002Z,99255.69
2019-03-22T00:49:45.329Z,99252.95
2019-03-22T00:52:18.198Z,99244.84
2019-03-22T00:54:51.359Z,99240.80
2019-03-22T00:57:28.743Z,99239.48
2019-03-22T00:59:59.426Z,99233.16
2019-03-22T01:02:32.293Z,99236.84
2019-03-22T01:05:07.612Z,99232.44
2019-03-22T01:07:40.665Z,99232.77
2019-03-22T01:10:14.512Z,99227.58
2019-03-22T01:12:47.819Z,99228.67
2019-03-22T01:15:21.078Z,99225.33
2019-03-22T01:17:53.805Z,99229.42
2019-03-22T01:20:26.513Z,99223.45
2019-03-22T01:22:59.668Z,99226.92
2019-03-22T01:25:32.359Z,99225.13
2019-03-22T01:28:05.106Z,99221.21
2019-03-22T01:30:37.821Z,99224.80
2019-03-22T01:33:10.979Z,99223.22
2019-03-22T01:35:43.997Z,99219.39
2019-03-22T01:38:17.206Z,99221.87
2019-03-22T01:40:50.626Z,99222.47
2019-03-22T01:43:23.827Z,99223.27
2019-03-22T01:45:56.526Z,99219.91
2019-03-22T01:48:29.727Z,99221.17
2019-03-22T01:51:02.752Z,99220.14
2019-03-22T01:53:35.766Z,99225.22
2019-03-22T01:56:08.790Z,99228.79
2019-03-22T01:58:41.951Z,99227.56
2019-03-22T02:01:15.119Z,99221.62
2019-03-22T02:03:47.854Z,99222.30
2019-03-22T02:06:21.010Z,99218.38
2019-03-22T02:08:54.588Z,99213.91
2019-03-22T02:11:27.597Z,99217.20
2019-03-22T02:14:00.809Z,99217.48
2019-03-22T02:16:34.017Z,99216.31
2019-03-22T02:19:06.793Z,99214.77
2019-03-22T02:21:39.496Z,99213.20
2019-03-22T02:24:12.442Z,99214.93
2019-03-22T02:26:45.153Z,99219.81
2019-03-22T02:29:19.195Z,99211.62
2019-03-22T02:31:52.215Z,99207.48
2019-03-22T02:34:25.427Z,99213.64
2019-03-22T02:36:58.509Z,99211.79
2019-03-22T02:39:31.993Z,99211.38
2019-03-22T02:42:05.166Z,99211.94
2019-03-22T02:44:37.904Z,99207.85
2019-03-22T02:47:10.607Z,99214.88
2019-03-22T02:49:44.159Z,99214.89
2019-03-22T02:52:17.261Z,99211.48
2019-03-22T02:54:50.315Z,99212.14
2019-03-22T02:57:23.760Z,99212.85
2019-03-22T02:59:56.971Z,99211.49
2019-03-22T03:02:30.966Z,99221.09
2019-03-22T03:05:04.586Z,99214.39
2019-03-22T03:07:37.613Z,99218.77
2019-03-22T03:10:11.965Z,99212.44
2019-03-22T03:12:44.769Z,99206.25
2019-03-22T03:15:17.857Z,99202.59
2019-03-22T03:17:51.044Z,99204.55
2019-03-22T03:20:23.774Z,99209.27
2019-03-22T03:22:56.484Z,99210.61
2019-03-22T03:25:29.531Z,99211.44
2019-03-22T03:28:02.657Z,99210.70
2019-03-22T03:30:36.686Z,99206.89
2019-03-22T03:33:09.364Z,99216.97
2019-03-22T03:35:42.531Z,99218.97
2019-03-22T03:38:15.222Z,99221.91
2019-03-22T03:40:48.449Z,99216.34
2019-03-22T03:43:21.474Z,99223.08
2019-03-22T03:45:54.883Z,99223.09
2019-03-22T03:48:27.653Z,99216.53
2019-03-22T03:51:00.736Z,99225.03
2019-03-22T03:53:33.479Z,99223.92
2019-03-22T03:56:06.655Z,99224.28
2019-03-22T03:58:51.587Z,99223.91
2019-03-22T04:01:14.538Z,99223.33
2019-03-22T04:03:47.236Z,99230.40
2019-03-22T04:06:20.288Z,99227.12
2019-03-22T04:08:52.990Z,99224.48
2019-03-22T04:11:26.039Z,99218.28
2019-03-22T04:13:59.166Z,99218.48
2019-03-22T04:16:31.950Z,99224.25
2019-03-22T04:19:04.654Z,99221.90
2019-03-22T04:21:38.806Z,99227.69
2019-03-22T04:24:11.821Z,99224.23
2019-03-22T04:26:45.817Z,99222.64
2019-03-22T04:29:18.504Z,99221.23
2019-03-22T04:31:52.647Z,99221.61
2019-03-22T04:34:26.252Z,99221.06
2019-03-22T04:36:59.468Z,99216.66
2019-03-22T04:39:32.157Z,99217.64
2019-03-22T04:42:05.476Z,99212.68
2019-03-22T04:44:38.956Z,99209.30
2019-03-22T04:47:15.978Z,99212.72
2019-03-22T04:49:52.189Z,99215.67
2019-03-22T04:52:27.448Z,99219.48
2019-03-22T04:55:03.129Z,99214.05
2019-03-22T04:57:38.264Z,99223.33
2019-03-22T05:00:12.071Z,99223.35
2019-03-22T05:02:46.351Z,99220.83
2019-03-22T05:05:20.863Z,99223.82
2019-03-22T05:07:55.322Z,99228.88
2019-03-22T05:10:30.606Z,99224.39
2019-03-22T05:13:04.546Z,99230.37
2019-03-22T05:15:38.608Z,99218.59
2019-03-22T05:18:12.786Z,99220.56
2019-03-22T05:20:47.712Z,99220.53
2019-03-22T05:23:24.239Z,99218.02
2019-03-22T05:26:00.438Z,99221.90
2019-03-22T05:28:34.338Z,99221.89
2019-03-22T05:32:13.511Z,99227.55
2019-03-22T05:34:46.573Z,99229.41
2019-03-22T05:37:19.588Z,99231.13
2019-03-22T05:39:52.332Z,99234.41
2019-03-22T05:42:25.516Z,99227.78
2019-03-22T05:44:58.736Z,99224.08
2019-03-22T05:47:31.438Z,99227.38
2019-03-22T05:50:04.801Z,99224.70
2019-03-22T05:52:37.507Z,99228.69
2019-03-22T05:55:10.464Z,99231.37
2019-03-22T05:57:43.173Z,99238.66
2019-03-22T06:00:17.477Z,99231.98
2019-03-22T06:02:50.487Z,99236.06
2019-03-22T06:05:23.223Z,99252.39
2019-03-22T06:07:56.803Z,99256.88
2019-03-22T06:10:29.549Z,99262.23
2019-03-22T06:13:02.234Z,99266.19
2019-03-22T06:15:37.519Z,99263.02
2019-03-22T06:18:11.638Z,99256.86
2019-03-22T06:20:45.002Z,99268.98
2019-03-22T06:23:18.013Z,99267.50
2019-03-22T06:25:51.221Z,99266.71
2019-03-22T06:28:23.920Z,99266.00
2019-03-22T06:30:56.656Z,99266.03
2019-03-22T06:33:29.778Z,99259.80
2019-03-22T06:36:02.829Z,99265.06
2019-03-22T06:38:36.567Z,99271.66
2019-03-22T06:41:10.510Z,99270.83
2019-03-22T06:43:43.217Z,99272.11
2019-03-22T06:46:15.967Z,99272.62
2019-03-22T06:48:50.182Z,99276.36
2019-03-22T06:51:23.235Z,99273.70
2019-03-22T06:53:57.040Z,99273.72
2019-03-22T06:56:29.777Z,99275.80
2019-03-22T06:59:02.888Z,99276.51
2019-03-22T07:01:37.642Z,99275.42
2019-03-22T07:04:10.448Z,99278.72
2019-03-22T07:06:43.205Z,99279.38
2019-03-22T07:09:16.997Z,99267.20
2019-03-22T07:11:50.525Z,99269.67
2019-03-22T07:14:23.240Z,99260.88
2019-03-22T07:16:58.735Z,99261.42
2019-03-22T07:19:31.585Z,99259.97
2019-03-22T07:22:04.734Z,99264.83
2019-03-22T07:24:37.453Z,99269.11
2019-03-22T07:27:10.205Z,99272.02
2019-03-22T07:29:42.928Z,99272.82
2019-03-22T07:32:15.666Z,99274.80
2019-03-22T07:34:48.356Z,99278.09
2019-03-22T07:37:21.097Z,99273.65
2019-03-22T07:39:53.796Z,99279.28
2019-03-22T07:42:27.005Z,99272.34
2019-03-22T07:45:01.017Z,99280.53
2019-03-22T07:47:33.764Z,99277.77
2019-03-22T07:50:06.939Z,99274.18
2019-03-22T07:52:40.000Z,99272.00
2019-03-22T07:55:13.098Z,99262.09
2019-03-22T07:57:46.763Z,99260.23
2019-03-22T08:00:30.300Z,99254.51
2019-03-22T08:02:56.884Z,99254.63
2019-03-22T08:05:29.737Z,99259.63
2019-03-22T08:08:02.565Z,99247.33
2019-03-22T08:10:36.350Z,99247.78
2019-03-22T08:13:09.520Z,99240.41
2019-03-22T08:15:43.568Z,99249.89
2019-03-22T08:18:17.288Z,99249.43
2019-03-22T08:20:50.812Z,99252.52
2019-03-22T08:23:25.495Z,99253.31
2019-03-22T08:25:59.678Z,99246.03
2019-03-22T08:28:32.891Z,99240.84
2019-03-22T08:31:06.276Z,99243.23
2019-03-22T08:33:39.875Z,99237.17
2019-03-22T08:36:14.909Z,99234.70
2019-03-22T08:38:48.530Z,99236.38
2019-03-22T08:41:23.854Z,99231.25
2019-03-22T08:43:56.958Z,99230.06
2019-03-22T08:46:30.212Z,99231.20
2019-03-22T08:49:03.536Z,99221.86
2019-03-22T08:51:36.470Z,99226.50
2019-03-22T08:54:09.303Z,99221.66
2019-03-22T08:56:42.509Z,99226.20
2019-03-22T08:59:15.383Z,99225.41
2019-03-22T09:01:48.258Z,99220.17
2019-03-22T09:04:21.615Z,99218.13
2019-03-22T09:06:55.676Z,99216.11
2019-03-22T09:09:40.658Z,99209.34
2019-03-22T09:12:03.483Z,99211.21
2019-03-22T09:14:36.381Z,99209.34
2019-03-22T09:17:09.708Z,99201.33
2019-03-22T09:19:43.343Z,99202.88
2019-03-22T09:22:16.680Z,99191.41
2019-03-22T09:24:50.411Z,99191.41
2019-03-22T09:27:23.666Z,99186.06
2019-03-22T09:29:56.966Z,99183.41
2019-03-22T09:32:29.825Z,99185.70
2019-03-22T09:35:03.064Z,99176.70
2019-03-22T09:37:35.934Z,99187.66
2019-03-22T09:40:10.740Z,99184.14
2019-03-22T09:42:44.211Z,99178.73
2019-03-22T09:45:17.442Z,99172.10
2019-03-22T09:47:50.982Z,99167.28
2019-03-22T09:50:24.794Z,99166.40
2019-03-22T09:52:58.186Z,99165.28
2019-03-22T09:55:31.543Z,99161.30
2019-03-22T09:58:05.249Z,99160.46
2019-03-22T10:00:39.038Z,99151.64
2019-03-22T10:03:11.830Z,99154.25
2019-03-22T10:05:45.170Z,99150.47
2019-03-22T10:08:18.819Z,99148.23
2019-03-22T10:10:52.992Z,99149.52
2019-03-22T10:13:26.170Z,99146.92
2019-03-22T10:15:59.718Z,99137.77
2019-03-22T10:18:36.680Z,99136.34
2019-03-22T10:21:21.511Z,99137.05
2019-03-22T10:23:44.282Z,99135.89
2019-03-22T10:26:17.555Z,99133.65
2019-03-22T10:28:50.713Z,99137.83
2019-03-22T10:31:36.540Z,99130.08
2019-03-22T10:33:58.983Z,99139.16
2019-03-22T10:36:31.873Z,99133.08
2019-03-22T10:39:06.791Z,99132.48
2019-03-22T10:41:40.130Z,99125.23
2019-03-22T10:44:13.761Z,99128.34
2019-03-22T10:46:47.684Z,99128.66
2019-03-22T10:49:21.410Z,99124.59
2019-03-22T10:51:57.533Z,99117.77
2019-03-22T10:54:29.846Z,99118.38
2019-03-22T10:57:03.166Z,99119.63
2019-03-22T10:59:36.420Z,99117.71
2019-03-22T11:02:09.938Z,99114.25
2019-03-22T11:04:43.100Z,99121.03
2019-03-22T11:07:16.303Z,99115.13
2019-03-22T11:09:49.605Z,99117.34
2019-03-22T11:12:22.904Z,99110.70
2019-03-22T11:14:56.546Z,99106.31
2019-03-22T11:17:30.076Z,99104.91
2019-03-22T11:20:04.428Z,99104.20
2019-03-22T11:22:37.835Z,99096.45
2019-03-22T11:25:11.731Z,99092.63
2019-03-22T11:27:45.732Z,99098.66
2019-03-22T11:30:20.312Z,99090.27
2019-03-22T11:32:53.140Z,99085.41
2019-03-22T11:35:26.312Z,99077.51
2019-03-22T11:38:00.862Z,99066.02
2019-03-22T11:40:34.138Z,99068.50
2019-03-22T11:43:08.807Z,99071.92
2019-03-22T11:45:42.680Z,99066.70
2019-03-22T11:48:15.582Z,99064.50
2019-03-22T11:50:48.850Z,99055.28
2019-03-22T11:53:21.687Z,99052.79
2019-03-22T11:55:54.892Z,99049.61
2019-03-22T11:58:28.108Z,99049.53
2019-03-22T12:01:02.341Z,99040.81
2019-03-22T12:03:35.555Z,99033.32
2019-03-22T12:06:09.347Z,99028.56
2019-03-22T12:08:43.285Z,99025.67
2019-03-22T12:11:17.529Z,99025.09
2019-03-22T12:13:50.431Z,99026.04
2019-03-22T12:16:23.845Z,99019.05
2019-03-22T12:18:56.668Z,99011.63
2019-03-22T12:21:29.487Z,99002.86
2019-03-22T12:24:02.312Z,99003.91
2019-03-22T12:26:35.414Z,99006.45
2019-03-22T12:29:08.794Z,99007.88
2019-03-22T12:31:42.053Z,98999.08
2019-03-22T12:34:15.728Z,98998.27
2019-03-22T12:36:49.707Z,98993.98
2019-03-22T12:39:22.839Z,98992.75
2019-03-22T12:41:56.167Z,98985.53
2019-03-22T12:44:29.925Z,98983.09
2019-03-22T12:47:02.792Z,98978.03
2019-03-22T12:49:36.091Z,98981.31
2019-03-22T12:52:08.893Z,98973.45
2019-03-22T12:54:42.403Z,98966.89
2019-03-22T12:57:16.614Z,98964.59
2019-03-22T12:59:50.069Z,98959.86
2019-03-22T13:02:23.398Z,98961.88
2019-03-22T13:04:56.222Z,98953.42
2019-03-22T13:07:29.403Z,98958.13
2019-03-22T13:10:03.112Z,98952.77
2019-03-22T13:12:36.872Z,98944.27
2019-03-22T13:15:10.016Z,98941.98
2019-03-22T13:17:42.878Z,98935.52
2019-03-22T13:20:17.345Z,98936.56
2019-03-22T13:22:50.433Z,98933.58
2019-03-22T13:25:23.835Z,98932.45
2019-03-22T13:27:56.621Z,98931.55
2019-03-22T13:30:47.739Z,98929.38
2019-03-22T13:33:20.527Z,98924.78
2019-03-22T13:35:53.760Z,98925.77
2019-03-22T13:38:30.164Z,98923.20
2019-03-22T13:41:03.299Z,98921.65
2019-03-22T13:43:36.391Z,98923.52
2019-03-22T13:46:09.961Z,98921.61
2019-03-22T13:48:42.818Z,98917.25
2019-03-22T13:51:15.646Z,98906.03
2019-03-22T13:53:48.506Z,98906.28
2019-03-22T13:56:22.200Z,98904.89
2019-03-22T13:58:55.531Z,98902.51
2019-03-22T14:01:28.985Z,98900.63
2019-03-22T14:04:02.487Z,98896.63
2019-03-22T14:06:36.156Z,98894.86
2019-03-22T14:09:11.165Z,98896.69
2019-03-22T14:11:44.530Z,98892.41
2019-03-22T14:14:17.635Z,98891.44
2019-03-22T14:16:51.090Z,98885.77
2019-03-22T14:19:23.881Z,98891.48
2019-03-22T14:21:57.116Z,98889.64
2019-03-22T14:24:30.300Z,98885.70
2019-03-22T14:27:03.830Z,98880.27
2019-03-22T14:29:37.504Z,98874.79
2019-03-22T14:32:10.848Z,98874.49
2019-03-22T14:34:43.987Z,98873.23
2019-03-22T14:37:17.654Z,98867.82
2019-03-22T14:39:50.755Z,98862.38
2019-03-22T14:42:23.898Z,98858.17
2019-03-22T14:44:56.680Z,98856.08
2019-03-22T14:47:30.451Z,98856.00
2019-03-22T14:50:03.246Z,98849.09
2019-03-22T14:52:36.540Z,98852.21
2019-03-22T14:55:09.737Z,98846.37
2019-03-22T14:57:48.705Z,98845.50
2019-03-22T15:00:18.438Z,98843.72
2019-03-22T15:02:51.957Z,98838.31
2019-03-22T15:05:25.472Z,98838.91
2019-03-22T15:07:58.371Z,98832.81
2019-03-22T15:10:31.153Z,98829.50
2019-03-22T15:13:03.986Z,98825.34
2019-03-22T15:15:56.074Z,98827.31
2019-03-22T15:18:47.659Z,98825.17
2019-03-22T15:21:39.869Z,98824.09
2019-03-22T15:24:29.750Z,98820.67
2019-03-22T15:27:24.721Z,98827.36
2019-03-22T15:30:15.197Z,98821.64
2019-03-22T15:33:15.696Z,98825.89
2019-03-22T15:36:07.497Z,98829.34
2019-03-22T15:39:02.208Z,98823.56
2019-03-22T15:41:35.448Z,98821.42
2019-03-22T15:44:08.878Z,98820.09
2019-03-22T15:46:42.023Z,98823.13
2019-03-22T15:49:15.866Z,98827.66
2019-03-22T15:51:49.086Z,98823.88
2019-03-22T15:54:22.658Z,98823.96
2019-03-22T15:56:55.963Z,98828.79
2019-03-22T15:59:29.174Z,98825.22
2019-03-22T16:02:02.386Z,98816.91
2019-03-22T16:04:35.485Z,98814.44
2019-03-22T16:07:08.453Z,98820.41
2019-03-22T16:09:41.618Z,98816.11
2019-03-22T16:12:14.743Z,98813.64
2019-03-22T16:14:47.927Z,98815.20
2019-03-22T16:17:21.146Z,98811.70
2019-03-22T16:19:54.324Z,98810.41
2019-03-22T16:22:27.272Z,98811.52
2019-03-22T16:25:00.522Z,98809.47
2019-03-22T16:27:33.362Z,98808.44
2019-03-22T16:30:07.642Z,98810.06
2019-03-22T16:32:40.868Z,98810.13
2019-03-22T16:35:14.508Z,98812.46
2019-03-22T16:37:47.644Z,98819.06
2019-03-22T16:40:24.432Z,98817.76
2019-03-22T16:42:56.150Z,98815.98
2019-03-22T16:45:41.679Z,98816.06
2019-03-22T16:48:14.976Z,98815.34
2019-03-22T16:50:48.627Z,98815.82
2019-03-22T16:53:21.814Z,98813.97
2019-03-22T16:55:56.177Z,98813.17
2019-03-22T16:58:29.485Z,98811.40
2019-03-22T17:01:02.829Z,98811.47
2019-03-22T17:03:36.062Z,98810.66
2019-03-22T17:06:09.044Z,98815.22
2019-03-22T17:08:42.571Z,98815.17
2019-03-22T17:11:15.766Z,98816.20
2019-03-22T17:13:48.983Z,98812.40
2019-03-22T17:16:22.245Z,98812.95
2019-03-22T17:18:55.543Z,98806.84
2019-03-22T17:21:28.509Z,98806.47
2019-03-22T17:24:03.269Z,98810.44
2019-03-22T17:26:37.020Z,98811.45
2019-03-22T17:29:09.929Z,98815.22
2019-03-22T17:31:44.294Z,98816.45
2019-03-22T17:34:18.134Z,98815.59
2019-03-22T17:36:52.364Z,98818.81
2019-03-22T17:39:25.736Z,98824.96
2019-03-22T17:41:58.609Z,98822.77
2019-03-22T17:44:32.955Z,98822.64
2019-03-22T17:47:06.242Z,98816.52
2019-03-22T17:49:47.785Z,98817.80
2019-03-22T17:52:14.873Z,98820.46
2019-03-22T17:54:48.010Z,98819.17
2019-03-22T17:57:21.762Z,98812.25
2019-03-22T17:59:54.970Z,98818.06
2019-03-22T18:02:28.066Z,98824.59
2019-03-22T18:05:01.876Z,98825.66
2019-03-22T18:07:35.471Z,98825.91
2019-03-22T18:10:09.603Z,98825.11
2019-03-22T18:12:42.467Z,98832.35
2019-03-22T18:15:16.816Z,98837.26
2019-03-22T18:17:49.601Z,98835.53
2019-03-22T18:20:22.533Z,98839.20
2019-03-22T18:22:55.337Z,98838.41
2019-03-22T18:25:28.672Z,98838.89
2019-03-22T18:28:01.544Z,98843.81
2019-03-22T18:30:35.075Z,98844.86
2019-03-22T18:33:08.722Z,98845.81
2019-03-22T18:35:41.544Z,98850.77
2019-03-22T18:38:15.108Z,98859.18
2019-03-22T18:40:49.212Z,98853.09
2019-03-22T18:43:22.073Z,98858.81
2019-03-22T18:45:55.372Z,98860.67
2019-03-22T18:48:28.646Z,98863.66
2019-03-22T18:51:01.561Z,98864.09
2019-03-22T18:53:34.670Z,98870.38
2019-03-22T18:56:08.537Z,98867.40
2019-03-22T18:58:43.117Z,98871.55
2019-03-22T19:01:16.643Z,98871.11
2019-03-22T19:03:50.794Z,98877.16
2019-03-22T19:06:23.622Z,98873.27
2019-03-22T19:08:57.807Z,98875.85
2019-03-22T19:11:31.103Z,98882.09
2019-03-22T19:14:04.398Z,98882.91
2019-03-22T19:16:37.236Z,98876.58
2019-03-22T19:19:11.220Z,98871.75
2019-03-22T19:21:44.816Z,98874.81
2019-03-22T19:24:18.618Z,98873.47
2019-03-22T19:26:51.844Z,98875.77
2019-03-22T19:29:24.635Z,98878.09
2019-03-22T19:31:57.462Z,98878.34
2019-03-22T19:34:30.731Z,98879.97
2019-03-22T19:37:04.639Z,98879.45
2019-03-22T19:39:37.895Z,98882.66
2019-03-22T19:42:11.115Z,98882.80
2019-03-22T19:44:44.216Z,98888.63
2019-03-22T19:47:18.379Z,98888.13
2019-03-22T19:49:52.205Z,98894.02
2019-03-22T19:52:26.197Z,98888.19
2019-03-22T19:54:59.479Z,98891.64
2019-03-22T19:57:33.177Z,98885.02
2019-03-22T20:00:06.797Z,98889.05
2019-03-22T20:02:41.202Z,98885.14
2019-03-22T20:05:18.072Z,98887.18
2019-03-22T20:07:52.607Z,98881.77
2019-03-22T20:10:26.221Z,98884.59
2019-03-22T20:12:59.857Z,98880.22
2019-03-22T20:15:33.106Z,98876.11
2019-03-22T20:18:06.414Z,98878.36
2019-03-22T20:20:39.873Z,98879.22
2019-03-22T20:23:13.448Z,98878.25
2019-03-22T20:25:47.070Z,98877.56
2019-03-22T20:28:20.738Z,98877.28
2019-03-22T20:30:54.490Z,98886.05
2019-03-22T20:33:27.970Z,98884.48
2019-03-22T20:36:01.309Z,98883.69
2019-03-22T20:38:35.676Z,98884.76
2019-03-22T20:41:08.707Z,98877.59
2019-03-22T20:43:43.849Z,98878.00
2019-03-22T20:46:17.757Z,98876.96
2019-03-22T20:48:50.928Z,98879.05
2019-03-22T20:51:24.251Z,98875.83
2019-03-22T20:53:57.637Z,98872.70
2019-03-22T20:56:30.663Z,98874.34
2019-03-22T20:59:03.717Z,98879.70
2019-03-22T21:01:37.049Z,98872.38
2019-03-22T21:04:10.111Z,98873.75
2019-03-22T21:06:43.726Z,98877.65
2019-03-22T21:09:16.484Z,98878.41
2019-03-22T21:11:49.659Z,98879.04
2019-03-22T21:14:22.951Z,98879.78
2019-03-22T21:16:55.758Z,98873.34
2019-03-22T21:19:29.133Z,98873.25
2019-03-22T21:22:02.259Z,98872.49
2019-03-22T21:24:36.547Z,98875.47
2019-03-22T21:27:15.414Z,98872.23
2019-03-22T21:29:44.671Z,98867.02
2019-03-22T21:32:17.710Z,98866.22
2019-03-22T21:34:51.275Z,98868.65
2019-03-22T21:37:24.291Z,98866.89
2019-03-22T21:39:57.682Z,98870.41
2019-03-22T21:42:30.436Z,98868.48
2019-03-22T21:45:04.697Z,98870.03
2019-03-22T21:47:38.463Z,98866.86
2019-03-22T21:50:12.452Z,98869.30
2019-03-22T21:52:45.473Z,98871.55
2019-03-22T21:55:19.705Z,98871.30
2019-03-22T21:57:52.428Z,98877.36
2019-03-22T22:00:25.572Z,98881.00
2019-03-22T22:02:58.758Z,98877.42
2019-03-22T22:05:31.968Z,98880.33
2019-03-22T22:08:05.769Z,98878.61
2019-03-22T22:10:38.518Z,98881.59
2019-03-22T22:13:12.271Z,98883.66
2019-03-22T22:15:45.809Z,98891.66
2019-03-22T22:18:18.831Z,98886.55
2019-03-22T22:20:52.573Z,98883.64
2019-03-22T22:23:25.888Z,98885.75
2019-03-22T22:25:59.114Z,98883.42
2019-03-22T22:28:31.815Z,98886.47
2019-03-22T22:31:04.570Z,98881.03
2019-03-22T22:33:37.672Z,98889.90
2019-03-22T22:36:10.443Z,98883.28
2019-03-22T22:38:45.835Z,98878.50
2019-03-22T22:41:18.579Z,98872.46
2019-03-22T22:43:51.288Z,98869.69
2019-03-22T22:46:25.078Z,98870.53
2019-03-22T22:48:58.104Z,98871.52
2019-03-22T22:51:31.373Z,98874.72
2019-03-22T22:54:04.384Z,98873.72
2019-03-22T22:56:38.067Z,98871.05
2019-03-22T22:59:11.305Z,98863.47
2019-03-22T23:01:44.361Z,98859.98
2019-03-22T23:04:17.059Z,98859.23
2019-03-22T23:06:49.807Z,98864.84
2019-03-22T23:09:23.237Z,98865.21
2019-03-22T23:11:55.989Z,98861.77
2019-03-22T23:14:28.712Z,98858.12
2019-03-22T23:17:02.539Z,98857.45
2019-03-22T23:19:35.565Z,98865.75
2019-03-22T23:22:08.719Z,98867.06
2019-03-22T23:24:42.912Z,98870.95
2019-03-22T23:27:16.139Z,98870.98
2019-03-22T23:29:49.260Z,98873.17
2019-03-22T23:32:22.779Z,98878.75
2019-03-22T23:34:59.278Z,98877.09
2019-03-22T23:37:29.926Z,98875.55
2019-03-22T23:40:02.639Z,98868.69
2019-03-22T23:42:35.845Z,98871.27
2019-03-22T23:45:09.584Z,98872.13
2019-03-22T23:47:43.138Z,98870.01
2019-03-22T23:50:16.253Z,98867.57
2019-03-22T23:52:49.416Z,98875.24
2019-03-22T23:55:22.446Z,98873.36
2019-03-22T23:57:55.488Z,98869.58
